Time;durP1;ratioP1;P1;durP2;ratioP2;P2;SDS_P1;SDS_P2;PMS_P1;PMS_P2;Temp;Humidity;BMP_temperature;BMP_pressure;BME280_temperature;BME280_humidity;BME280_pressure;Samples;Min_cycle;Max_cycle;Signal;HPM_P1;HPM_P2
2023/06/02 00:01:31;;;;;;;22.80;12.57;;;;;;;21.71;45.94;102374.00;5001138;28;20096;-36
2023/06/02 00:04:01;;;;;;;22.77;12.40;;;;;;;21.73;45.83;102378.28;5006681;28;20397;-35
2023/06/02 00:06:30;;;;;;;21.50;12.32;;;;;;;21.74;45.53;102369.19;5003943;28;20054;-35
2023/06/02 00:08:58;;;;;;;20.30;12.05;;;;;;;21.77;45.94;102373.44;5004415;28;20050;-36
2023/06/02 00:11:25;;;;;;;20.90;12.10;;;;;;;21.78;45.77;102372.44;5001622;28;20049;-35
2023/06/02 00:13:52;;;;;;;19.42;11.82;;;;;;;21.78;46.02;102364.34;5000351;28;20041;-35
2023/06/02 00:16:19;;;;;;;22.80;11.95;;;;;;;21.79;45.82;102366.06;5003546;28;20053;-35
2023/06/02 00:18:47;;;;;;;21.80;12.82;;;;;;;21.78;45.61;102370.59;5000119;28;20050;-35
2023/06/02 00:21:14;;;;;;;22.27;12.18;;;;;;;21.79;45.47;102368.75;5033082;28;20565;-36
2023/06/02 00:23:41;;;;;;;21.23;11.82;;;;;;;21.79;45.48;102360.66;5003151;28;20051;-35
2023/06/02 00:26:07;;;;;;;20.23;10.57;;;;;;;21.78;45.54;102357.09;5007098;28;20108;-35
2023/06/02 00:28:34;;;;;;;18.08;11.07;;;;;;;21.79;45.66;102355.25;5001882;28;20435;-37
2023/06/02 00:31:01;;;;;;;18.63;11.05;;;;;;;21.77;45.74;102349.16;5003854;28;20109;-35
2023/06/02 00:33:27;;;;;;;20.40;10.77;;;;;;;21.77;45.66;102354.56;5004844;28;20053;-36
2023/06/02 00:35:54;;;;;;;20.10;10.18;;;;;;;21.77;45.42;102363.50;5007685;28;20501;-36
2023/06/02 00:38:21;;;;;;;18.17;10.38;;;;;;;21.77;45.48;102354.56;5005089;28;20439;-36
2023/06/02 00:40:47;;;;;;;16.80;10.93;;;;;;;21.77;45.67;102357.25;5006830;28;20428;-36
2023/06/02 00:43:14;;;;;;;17.27;10.13;;;;;;;21.76;45.52;102359.09;5004681;28;20576;-35
2023/06/02 00:45:40;;;;;;;16.58;10.32;;;;;;;21.77;45.77;102357.25;5003507;28;20132;-36
2023/06/02 00:48:08;;;;;;;17.77;10.05;;;;;;;21.77;45.54;102357.25;5004009;28;20112;-35
2023/06/02 00:50:35;;;;;;;17.63;9.82;;;;;;;21.77;45.42;102362.66;5001807;28;20121;-36
2023/06/02 00:53:02;;;;;;;18.38;9.80;;;;;;;21.77;45.50;102357.25;5005331;28;20428;-35
2023/06/02 00:55:30;;;;;;;16.67;9.48;;;;;;;21.77;45.75;102359.97;5005454;28;20405;-36
2023/06/02 00:58:03;;;;;;;15.38;9.25;;;;;;;21.77;45.78;102357.25;5002601;28;20054;-36
2023/06/02 01:00:36;;;;;;;15.60;9.40;;;;;;;21.76;45.53;102360.97;5003214;28;20099;-36
2023/06/02 01:03:04;;;;;;;18.05;8.93;;;;;;;21.76;45.56;102353.72;4999404;28;20088;-35
2023/06/02 01:05:31;;;;;;;17.42;8.93;;;;;;;21.76;45.53;102352.88;5005135;28;20053;-35
2023/06/02 01:08:02;;;;;;;15.75;8.68;;;;;;;21.75;45.59;102351.13;5001135;28;20092;-36
2023/06/02 01:10:29;;;;;;;13.88;8.32;;;;;;;21.76;45.67;102358.25;5003522;28;20046;-35
2023/06/02 01:12:56;;;;;;;14.20;8.35;;;;;;;21.76;45.47;102350.16;5004098;28;20076;-35
2023/06/02 01:15:23;;;;;;;14.15;8.48;;;;;;;21.75;45.67;102352.00;5004777;28;20073;-36
2023/06/02 01:17:51;;;;;;;17.17;8.57;;;;;;;21.76;45.46;102355.56;5000070;28;20046;-35
2023/06/02 01:20:21;;;;;;;15.55;8.13;;;;;;;21.77;45.56;102360.81;5003224;28;20060;-35
2023/06/02 01:23:09;;;;;;;13.25;8.13;;;;;;;21.78;45.52;102353.56;5007276;28;20060;-35
2023/06/02 01:25:36;;;;;;;14.20;7.78;;;;;;;21.79;45.37;102361.53;5005106;28;20046;-35
2023/06/02 01:28:06;;;;;;;15.00;7.35;;;;;;;21.80;45.70;102354.28;5001198;28;20049;-36
2023/06/02 01:30:34;;;;;;;12.10;7.20;;;;;;;21.81;45.29;102361.38;5005608;28;20049;-36
2023/06/02 01:33:30;;;;;;;14.68;8.40;;;;;;;21.80;45.52;102367.78;5003103;28;20054;-36
2023/06/02 01:36:00;;;;;;;12.43;7.13;;;;;;;21.81;45.37;102369.47;5004744;28;20038;-35
2023/06/02 01:38:29;;;;;;;12.80;7.38;;;;;;;21.80;45.82;102363.22;5005485;28;20105;-36
2023/06/02 01:41:00;;;;;;;15.38;7.43;;;;;;;21.78;45.75;102356.25;5002667;28;20061;-36
2023/06/02 01:43:28;;;;;;;13.70;6.68;;;;;;;21.78;45.67;102354.41;5005711;28;20061;-35
2023/06/02 01:45:56;;;;;;;11.55;7.03;;;;;;;21.78;45.55;102362.50;5003762;28;20449;-35
2023/06/02 01:48:23;;;;;;;14.02;6.97;;;;;;;21.76;45.37;102358.25;5001802;28;20050;-35
2023/06/02 01:50:49;;;;;;;11.75;6.35;;;;;;;21.76;45.59;102359.09;5002249;28;20264;-36
2023/06/02 01:53:16;;;;;;;12.30;7.00;;;;;;;21.75;45.70;102360.09;5000200;28;20080;-35
2023/06/02 01:55:43;;;;;;;12.40;7.53;;;;;;;21.75;45.60;102360.09;5005706;28;20417;-36
2023/06/02 01:58:09;;;;;;;12.60;6.38;;;;;;;21.76;45.80;102352.88;5005323;28;20140;-35
2023/06/02 02:00:36;;;;;;;12.15;6.43;;;;;;;21.75;45.58;102359.22;5002992;28;20058;-35
2023/06/02 02:03:04;;;;;;;12.52;6.40;;;;;;;21.75;45.34;102353.84;5001281;28;20050;-35
2023/06/02 02:05:31;;;;;;;10.80;6.07;;;;;;;21.76;45.73;102355.56;5006458;28;20038;-36
2023/06/02 02:07:58;;;;;;;11.15;5.47;;;;;;;21.75;45.47;102353.84;5003239;28;20132;-34
2023/06/02 02:10:24;;;;;;;10.90;6.07;;;;;;;21.77;45.59;102352.72;5005671;28;20594;-34
2023/06/02 02:12:51;;;;;;;9.18;5.18;;;;;;;21.79;45.67;102355.25;5003125;28;20090;-34
2023/06/02 02:15:18;;;;;;;9.32;5.43;;;;;;;21.81;45.76;102350.59;5001139;28;20045;-37
2023/06/02 02:17:45;;;;;;;11.00;5.78;;;;;;;21.83;45.62;102352.16;5003648;28;20145;-35
2023/06/02 02:20:17;;;;;;;11.48;6.43;;;;;;;21.85;45.46;102350.16;5003646;28;20382;-34
2023/06/02 02:22:46;;;;;;;10.20;4.60;;;;;;;21.88;45.69;102357.97;5001423;28;20053;-35
2023/06/02 02:25:14;;;;;;;9.25;5.35;;;;;;;21.88;45.44;102351.72;5004490;28;20045;-34
2023/06/02 02:27:40;;;;;;;8.63;5.15;;;;;;;21.89;45.40;102356.13;5007423;28;20050;-34
2023/06/02 02:30:07;;;;;;;8.77;5.03;;;;;;;21.87;45.19;102364.38;5003731;28;20042;-34
2023/06/02 02:32:37;;;;;;;9.68;5.55;;;;;;;21.85;45.53;102360.09;5001926;28;20057;-34
2023/06/02 02:35:05;;;;;;;8.18;4.88;;;;;;;21.82;45.42;102350.44;5005559;28;20049;-34
2023/06/02 02:37:32;;;;;;;11.25;5.40;;;;;;;21.80;45.56;102351.59;5004613;28;20446;-35
2023/06/02 02:40:12;;;;;;;10.38;5.28;;;;;;;21.76;45.62;102355.56;5004270;28;20144;-35
2023/06/02 02:42:38;;;;;;;10.07;5.15;;;;;;;21.71;45.28;102358.69;5003248;28;20146;-34
2023/06/02 02:45:07;;;;;;;8.95;4.60;;;;;;;21.66;45.56;102358.22;5004592;28;20073;-34
2023/06/02 02:47:33;;;;;;;6.65;4.18;;;;;;;21.59;45.68;102354.41;5003330;28;20077;-34
2023/06/02 02:50:00;;;;;;;6.97;4.43;;;;;;;21.54;45.77;102356.66;5002440;28;20060;-34
2023/06/02 02:52:28;;;;;;;8.82;4.68;;;;;;;21.47;45.68;102355.50;4990995;28;20606;-34
2023/06/02 02:54:54;;;;;;;8.82;4.70;;;;;;;21.42;45.92;102353.22;5000660;28;20054;-34
2023/06/02 02:57:21;;;;;;;6.70;3.72;;;;;;;21.36;46.00;102348.41;5031246;28;20620;-35
2023/06/02 02:59:48;;;;;;;8.25;4.50;;;;;;;21.31;46.37;102346.09;5005890;28;20397;-34
2023/06/02 03:02:14;;;;;;;11.95;4.50;;;;;;;21.24;45.95;102344.94;5007362;28;20050;-34
2023/06/02 03:04:41;;;;;;;8.00;4.60;;;;;;;21.18;46.24;102340.94;5001005;28;20442;-34
2023/06/02 03:07:08;;;;;;;7.00;4.32;;;;;;;21.15;46.57;102338.53;5002418;28;20598;-34
2023/06/02 03:09:37;;;;;;;6.53;4.30;;;;;;;21.12;46.50;102337.97;5001084;28;20056;-35
2023/06/02 03:12:03;;;;;;;9.52;4.43;;;;;;;21.07;47.09;102343.78;4988662;28;20070;-34
2023/06/02 03:14:30;;;;;;;7.50;3.95;;;;;;;21.04;46.85;102349.44;5006415;28;20088;-35
2023/06/02 03:16:56;;;;;;;7.90;4.40;;;;;;;21.02;47.16;102355.94;5006724;28;20451;-35
2023/06/02 03:19:24;;;;;;;7.60;3.72;;;;;;;21.00;46.93;102350.69;5004197;28;20078;-35
2023/06/02 03:21:51;;;;;;;6.30;3.85;;;;;;;20.96;46.63;102349.25;4999872;28;20484;-35
2023/06/02 03:24:19;;;;;;;7.18;3.90;;;;;;;20.95;46.50;102361.88;4999894;28;20290;-35
2023/06/02 03:26:46;;;;;;;7.35;3.85;;;;;;;20.92;47.01;102354.06;4997491;28;20140;-35
2023/06/02 03:29:13;;;;;;;9.32;3.88;;;;;;;20.91;47.27;102360.44;5000518;28;20050;-34
2023/06/02 03:31:43;;;;;;;9.27;4.25;;;;;;;20.90;46.86;102357.88;5003782;28;20124;-35
2023/06/02 03:34:10;;;;;;;7.95;3.75;;;;;;;20.89;46.69;102353.47;5000974;28;20050;-35
2023/06/02 03:36:37;;;;;;;8.18;3.67;;;;;;;20.90;46.75;102355.19;5001534;28;20256;-35
2023/06/02 03:39:05;;;;;;;7.53;3.50;;;;;;;20.88;46.51;102349.09;5000060;28;20050;-35
2023/06/02 03:41:32;;;;;;;6.13;3.22;;;;;;;20.87;46.80;102347.38;4999333;28;20358;-34
2023/06/02 03:44:00;;;;;;;5.78;3.45;;;;;;;20.87;46.71;102345.53;5002892;28;20717;-37
2023/06/02 03:46:27;;;;;;;7.47;3.47;;;;;;;20.87;46.96;102342.84;5000944;28;20045;-35
2023/06/02 03:48:54;;;;;;;6.85;3.10;;;;;;;20.87;46.35;102342.84;4998813;28;20046;-35
2023/06/02 03:51:21;;;;;;;5.05;3.15;;;;;;;20.86;46.71;102349.19;5002130;28;20049;-34
2023/06/02 03:53:49;;;;;;;6.22;3.38;;;;;;;20.87;46.33;102347.38;5002615;28;20042;-35
2023/06/02 03:56:16;;;;;;;7.47;3.20;;;;;;;20.87;46.20;102353.63;5001525;28;20452;-36
2023/06/02 03:58:42;;;;;;;3.97;2.85;;;;;;;20.88;46.26;102349.94;4996914;28;20075;-34
2023/06/02 04:01:09;;;;;;;5.28;3.00;;;;;;;20.89;46.39;102357.03;5001818;28;20116;-34
2023/06/02 04:03:41;;;;;;;5.60;3.35;;;;;;;20.88;46.46;102354.47;4997711;28;20054;-35
2023/06/02 04:06:08;;;;;;;6.03;3.53;;;;;;;20.89;46.44;102357.03;4999363;28;20437;-34
2023/06/02 04:08:36;;;;;;;10.30;4.18;;;;;;;20.89;46.62;102357.03;5003574;28;20049;-34
2023/06/02 04:11:03;;;;;;;6.18;3.13;;;;;;;20.88;46.77;102357.16;5007330;28;20050;-34
2023/06/02 04:13:30;;;;;;;6.25;3.42;;;;;;;20.88;46.39;102357.16;5007492;28;20077;-35
2023/06/02 04:15:58;;;;;;;7.60;3.88;;;;;;;20.88;46.55;102359.88;5002644;28;20050;-35
2023/06/02 04:18:27;;;;;;;11.18;4.57;;;;;;;20.86;46.50;102357.28;5003641;28;20165;-35
2023/06/02 04:20:54;;;;;;;10.10;4.75;;;;;;;20.88;46.41;102357.16;5005508;28;20081;-34
2023/06/02 04:23:20;;;;;;;10.45;5.30;;;;;;;20.94;46.38;102359.31;5004318;28;20076;-34
2023/06/02 04:25:47;;;;;;;10.40;5.68;;;;;;;21.03;46.37;102357.66;5002348;28;20516;-34
2023/06/02 04:28:14;;;;;;;20.88;9.68;;;;;;;21.11;46.78;102363.22;5003477;28;20081;-34
2023/06/02 04:30:40;;;;;;;26.35;12.20;;;;;;;21.17;46.03;102366.19;5005055;28;20046;-35
2023/06/02 04:33:08;;;;;;;23.52;12.13;;;;;;;21.26;46.29;102363.66;5005725;28;20046;-35
2023/06/02 04:35:37;;;;;;;33.17;16.27;;;;;;;21.33;45.97;102363.00;5004734;28;20049;-35
2023/06/02 04:38:05;;;;;;;45.13;19.15;;;;;;;21.41;46.16;102362.31;5007761;28;20050;-34
2023/06/02 04:40:32;;;;;;;40.03;17.77;;;;;;;21.49;45.75;102365.19;5005298;28;20046;-34
2023/06/02 04:42:59;;;;;;;37.80;18.48;;;;;;;21.56;45.24;102365.47;5001676;28;20058;-35
2023/06/02 04:45:25;;;;;;;31.65;16.05;;;;;;;21.60;45.57;102367.75;5003433;28;20468;-34
2023/06/02 04:47:52;;;;;;;36.67;16.10;;;;;;;21.63;45.12;102367.50;5002207;28;20112;-34
2023/06/02 04:50:19;;;;;;;37.95;17.77;;;;;;;21.64;45.45;102369.19;4999879;28;20053;-34
2023/06/02 04:52:45;;;;;;;45.90;17.83;;;;;;;21.66;46.11;102363.63;5005754;28;20140;-34
2023/06/02 04:55:12;;;;;;;40.72;17.55;;;;;;;21.66;47.70;102363.63;5002661;28;20434;-34
2023/06/02 04:57:39;;;;;;;45.22;18.55;;;;;;;21.67;48.55;102366.22;5004115;28;20050;-34
2023/06/02 05:00:08;;;;;;;45.92;18.40;;;;;;;21.66;49.27;102364.47;5004556;28;20079;-34
2023/06/02 05:02:35;;;;;;;38.92;17.05;;;;;;;21.65;48.67;102370.88;5001316;28;20508;-34
2023/06/02 05:05:02;;;;;;;38.03;16.60;;;;;;;21.64;48.79;102371.88;5001204;28;20128;-34
2023/06/02 05:07:29;;;;;;;44.53;16.45;;;;;;;21.63;48.64;102366.63;5001162;28;20164;-34
2023/06/02 05:09:56;;;;;;;39.55;17.13;;;;;;;21.61;48.92;102368.59;5003345;28;20120;-34
2023/06/02 05:12:24;;;;;;;36.10;15.88;;;;;;;21.59;48.64;102360.66;5002308;28;20046;-34
2023/06/02 05:14:51;;;;;;;46.05;15.73;;;;;;;21.57;48.58;102367.19;5002843;28;20046;-35
2023/06/02 05:17:28;;;;;;;35.03;15.93;;;;;;;21.52;48.74;102373.00;5001732;28;20069;-34
2023/06/02 05:19:55;;;;;;;40.13;17.25;;;;;;;21.49;48.55;102365.19;5006844;28;20442;-34
2023/06/02 05:22:22;;;;;;;40.40;18.55;;;;;;;21.46;48.53;102370.00;5005736;28;20090;-34
2023/06/02 05:24:49;;;;;;;48.47;19.88;;;;;;;21.42;48.55;102370.25;5000621;28;20053;-34
2023/06/02 05:27:16;;;;;;;40.88;19.88;;;;;;;21.39;48.35;102375.13;5002591;28;20050;-37
2023/06/02 05:29:42;;;;;;;42.05;20.65;;;;;;;21.34;48.50;102374.66;5001213;28;20140;-35
2023/06/02 05:32:09;;;;;;;45.65;19.17;;;;;;;21.31;48.26;102372.22;4998913;28;20168;-34
2023/06/02 05:34:36;;;;;;;47.63;20.13;;;;;;;21.28;48.02;102367.94;5005230;28;20072;-34
2023/06/02 05:37:03;;;;;;;43.97;20.70;;;;;;;21.24;48.14;102381.84;5005887;28;20418;-32
2023/06/02 05:39:30;;;;;;;40.88;18.77;;;;;;;21.18;48.08;102386.78;5002909;28;20050;-34
2023/06/02 05:41:57;;;;;;;39.08;20.42;;;;;;;21.15;47.97;102376.28;5001138;28;20078;-35
2023/06/02 05:44:23;;;;;;;34.90;19.00;;;;;;;21.12;48.07;102379.25;5000270;28;20053;-34
2023/06/02 05:46:50;;;;;;;39.33;19.05;;;;;;;21.09;47.72;102374.13;4996273;28;20050;-34
2023/06/02 05:49:17;;;;;;;35.85;16.98;;;;;;;21.05;47.42;102378.09;4996483;28;20065;-35
2023/06/02 05:51:43;;;;;;;43.13;19.52;;;;;;;21.04;47.35;102383.63;4998715;28;20047;-34
2023/06/02 05:54:10;;;;;;;35.28;17.50;;;;;;;21.00;47.36;102374.94;5001981;28;20064;-35
2023/06/02 05:56:37;;;;;;;40.95;19.42;;;;;;;20.98;47.50;102381.47;5000567;28;20124;-35
2023/06/02 05:59:05;;;;;;;37.38;18.45;;;;;;;20.96;47.02;102381.59;4998918;28;20064;-35
2023/06/02 06:01:31;;;;;;;34.75;17.33;;;;;;;20.95;47.20;102382.59;4996003;28;20151;-34
2023/06/02 06:03:58;;;;;;;35.25;19.63;;;;;;;20.94;47.56;102386.25;5000809;28;20438;-35
2023/06/02 06:06:25;;;;;;;36.75;17.58;;;;;;;20.93;47.26;102382.72;5001134;28;20349;-35
2023/06/02 06:08:52;;;;;;;30.95;16.60;;;;;;;20.93;47.22;102380.03;5006509;28;20131;-36
2023/06/02 06:11:21;;;;;;;34.90;16.88;;;;;;;20.93;47.41;102384.56;5003383;28;20054;-35
2023/06/02 06:13:47;;;;;;;33.97;17.00;;;;;;;20.95;47.41;102388.00;4998136;28;20052;-35
2023/06/02 06:16:14;;;;;;;39.35;18.75;;;;;;;20.96;46.84;102378.91;4993241;28;20081;-36
2023/06/02 06:18:41;;;;;;;36.83;17.00;;;;;;;20.95;46.69;102379.91;4999365;28;20056;-34
2023/06/02 06:21:07;;;;;;;32.60;16.08;;;;;;;20.96;46.73;102378.91;4998483;28;20096;-34
2023/06/02 06:23:34;;;;;;;33.42;15.73;;;;;;;20.98;46.64;102376.91;5000571;28;20062;-35
2023/06/02 06:26:00;;;;;;;28.55;15.85;;;;;;;20.99;47.10;102381.34;4999772;28;20122;-35
2023/06/02 06:28:27;;;;;;;28.23;15.63;;;;;;;21.01;46.55;102381.19;4997712;28;20262;-35
2023/06/02 06:30:54;;;;;;;34.00;15.95;;;;;;;21.01;46.99;102379.34;5001168;28;20054;-35
2023/06/02 06:33:21;;;;;;;30.83;16.33;;;;;;;21.03;46.68;102384.63;5025885;28;20065;-34
2023/06/02 06:35:47;;;;;;;33.35;16.58;;;;;;;21.03;46.81;102382.78;4998778;28;20054;-34
2023/06/02 06:38:14;;;;;;;33.38;16.13;;;;;;;21.04;46.59;102376.38;4998046;28;20420;-34
2023/06/02 06:40:41;;;;;;;30.02;16.35;;;;;;;21.05;46.64;102379.94;5002096;28;20104;-34
2023/06/02 06:43:08;;;;;;;29.30;15.30;;;;;;;21.06;46.48;102384.31;5001766;28;20140;-34
2023/06/02 06:45:49;;;;;;;28.98;15.45;;;;;;;21.07;46.36;102380.66;4996660;28;20068;-35
2023/06/02 06:48:16;;;;;;;36.85;16.70;;;;;;;21.07;46.36;102381.50;5004250;28;20057;-34
2023/06/02 06:50:43;;;;;;;30.20;15.13;;;;;;;21.08;46.49;102387.75;4995746;28;20141;-34
2023/06/02 06:53:11;;;;;;;29.10;15.40;;;;;;;21.09;46.69;102387.59;4998507;28;20046;-34
2023/06/02 06:55:38;;;;;;;29.80;14.98;;;;;;;21.09;46.32;102390.31;4997498;28;20115;-34
2023/06/02 06:58:04;;;;;;;25.92;13.35;;;;;;;21.09;46.62;102386.75;4998609;28;21261;-35
2023/06/02 07:00:31;;;;;;;28.92;14.43;;;;;;;21.09;46.89;102401.09;4998382;28;20054;-34
2023/06/02 07:02:58;;;;;;;26.85;14.30;;;;;;;21.09;46.32;102397.53;4999103;28;20054;-35
2023/06/02 07:05:25;;;;;;;29.70;14.45;;;;;;;21.09;46.48;102402.94;4996953;28;20657;-35
2023/06/02 07:07:52;;;;;;;25.48;13.43;;;;;;;21.08;46.02;102398.53;4995066;28;20437;-34
2023/06/02 07:10:19;;;;;;;27.10;14.93;;;;;;;21.08;46.15;102395.84;4992540;28;20104;-34
2023/06/02 07:12:46;;;;;;;28.52;14.40;;;;;;;21.07;46.63;102405.78;5001600;28;20048;-35
2023/06/02 07:15:13;;;;;;;27.42;14.77;;;;;;;21.08;46.42;102410.16;4992693;28;20157;-34
2023/06/02 07:17:40;;;;;;;27.83;13.85;;;;;;;21.09;46.47;102394.84;4998102;28;20111;-34
2023/06/02 07:20:11;;;;;;;24.17;12.55;;;;;;;21.08;46.48;102398.53;4998918;28;20050;-35
2023/06/02 07:22:38;;;;;;;26.13;13.50;;;;;;;21.09;46.23;102397.53;4999878;28;20061;-36
2023/06/02 07:25:06;;;;;;;25.23;13.55;;;;;;;21.09;46.06;102398.38;5003895;28;20046;-35
2023/06/02 07:27:33;;;;;;;23.30;12.10;;;;;;;21.10;46.01;102401.94;5009769;28;20052;-35
2023/06/02 07:30:00;;;;;;;22.67;12.57;;;;;;;21.11;46.29;102398.28;5008840;28;20050;-36
2023/06/02 07:32:27;;;;;;;27.00;13.23;;;;;;;21.11;46.02;102404.50;5007533;28;20484;-35
2023/06/02 07:34:54;;;;;;;22.23;12.65;;;;;;;21.12;46.44;102402.66;4992628;28;20083;-35
2023/06/02 07:37:21;;;;;;;23.73;11.80;;;;;;;21.12;46.36;102408.06;5003168;28;20319;-36
2023/06/02 07:39:47;;;;;;;25.00;12.73;;;;;;;21.13;45.81;102399.81;5006359;28;20053;-35
2023/06/02 07:42:14;;;;;;;22.42;12.27;;;;;;;21.14;46.13;102409.63;5008192;28;20116;-35
2023/06/02 07:44:41;;;;;;;21.95;12.27;;;;;;;21.14;45.77;102412.31;4997918;28;20434;-35
2023/06/02 07:47:08;;;;;;;22.00;11.20;;;;;;;21.15;45.65;102411.34;5003207;28;20049;-34
2023/06/02 07:49:35;;;;;;;21.90;12.00;;;;;;;21.16;45.85;102407.66;5004748;28;20140;-35
2023/06/02 07:52:02;;;;;;;23.45;11.55;;;;;;;21.16;45.81;102407.66;5004184;28;20046;-34
2023/06/02 07:54:28;;;;;;;20.17;11.18;;;;;;;21.17;45.59;102417.44;5003286;28;20061;-35
2023/06/02 07:56:55;;;;;;;20.65;11.18;;;;;;;21.17;45.99;102413.88;4998607;28;20046;-35
2023/06/02 07:59:23;;;;;;;23.60;12.70;;;;;;;21.16;45.63;102410.34;4998288;28;20052;-35
2023/06/02 08:01:50;;;;;;;22.20;13.15;;;;;;;21.16;46.06;102407.66;5003938;28;20054;-35
2023/06/02 08:04:17;;;;;;;21.35;12.25;;;;;;;21.15;46.12;102408.66;5000269;28;20050;-35
2023/06/02 08:06:44;;;;;;;20.85;12.43;;;;;;;21.15;45.89;102413.19;4998134;28;20049;-35
2023/06/02 08:09:11;;;;;;;23.10;12.73;;;;;;;21.15;45.59;102411.34;5005467;28;20478;-34
2023/06/02 08:11:37;;;;;;;21.17;12.52;;;;;;;21.14;45.98;102412.31;5007564;28;20042;-35
2023/06/02 08:14:04;;;;;;;21.75;12.75;;;;;;;21.15;45.56;102415.88;5007508;28;20345;-36
2023/06/02 08:16:31;;;;;;;24.05;12.88;;;;;;;21.14;45.53;102417.69;5008634;28;20378;-36
2023/06/02 08:19:19;;;;;;;22.90;12.18;;;;;;;21.15;45.97;102405.94;5008491;28;20062;-35
2023/06/02 08:21:46;;;;;;;23.45;12.68;;;;;;;21.15;45.60;102411.34;5008851;28;20413;-34
2023/06/02 08:24:13;;;;;;;21.25;12.50;;;;;;;21.16;45.94;102407.66;5007176;28;20496;-34
2023/06/02 08:26:41;;;;;;;22.60;12.63;;;;;;;21.17;45.59;102397.72;5009079;28;20050;-34
2023/06/02 08:29:11;;;;;;;21.65;12.15;;;;;;;21.17;45.66;102400.41;5006384;28;20058;-34
2023/06/02 08:31:38;;;;;;;21.77;11.70;;;;;;;21.17;45.79;102400.41;5006799;28;20050;-34
2023/06/02 08:34:08;;;;;;;20.42;12.18;;;;;;;21.17;45.45;102401.25;5009291;28;20069;-34
2023/06/02 08:36:35;;;;;;;21.35;11.65;;;;;;;21.18;45.84;102400.25;5005964;28;20137;-33
2023/06/02 08:39:06;;;;;;;23.95;11.75;;;;;;;21.19;45.19;102401.13;5010141;28;20474;-34
2023/06/02 08:41:36;;;;;;;20.23;11.20;;;;;;;21.18;45.22;102405.66;5011865;28;20050;-34
2023/06/02 08:44:03;;;;;;;23.52;12.80;;;;;;;21.19;45.88;102407.38;5007242;28;20101;-34
2023/06/02 08:46:30;;;;;;;22.02;11.63;;;;;;;21.20;45.13;102408.22;5007780;28;20082;-34
2023/06/02 08:48:58;;;;;;;21.05;11.73;;;;;;;21.20;45.59;102403.69;5005856;28;20141;-34
2023/06/02 08:51:25;;;;;;;22.17;11.82;;;;;;;21.20;45.15;102406.38;5007791;28;20081;-35
2023/06/02 08:53:51;;;;;;;21.52;12.02;;;;;;;21.20;45.31;102405.53;5007609;28;20128;-35
2023/06/02 08:56:18;;;;;;;25.05;11.45;;;;;;;21.20;45.81;102411.78;5008577;28;20042;-34
2023/06/02 08:58:46;;;;;;;19.15;10.80;;;;;;;21.18;45.51;102408.34;5009335;28;20054;-34
2023/06/02 09:01:13;;;;;;;20.05;11.20;;;;;;;21.17;45.56;102409.34;5010358;28;20049;-34
2023/06/02 09:03:40;;;;;;;16.77;10.07;;;;;;;21.16;45.29;102406.78;5009519;28;20060;-35
2023/06/02 09:06:22;;;;;;;19.53;11.07;;;;;;;21.16;45.60;102413.03;5006605;28;20050;-35
2023/06/02 09:08:56;;;;;;;21.02;10.80;;;;;;;21.17;45.45;102417.44;5012169;28;20100;-35
2023/06/02 09:11:24;;;;;;;18.52;10.27;;;;;;;21.17;45.29;102409.34;5006746;28;20050;-35
2023/06/02 09:13:50;;;;;;;20.35;11.07;;;;;;;21.17;45.44;102411.19;5009658;28;20140;-36
2023/06/02 09:16:17;;;;;;;19.73;10.88;;;;;;;21.18;45.37;102413.75;5008286;28;20261;-35
2023/06/02 09:18:57;;;;;;;17.20;9.75;;;;;;;21.18;45.72;102416.44;5009639;28;20108;-35
2023/06/02 09:21:32;;;;;;;17.95;10.30;;;;;;;21.20;45.74;102408.22;5009022;28;20140;-34
2023/06/02 09:24:01;;;;;;;19.92;9.88;;;;;;;21.22;45.05;102414.31;5009019;28;20096;-34
2023/06/02 09:26:31;;;;;;;16.60;9.63;;;;;;;21.23;45.54;102416.06;5009029;28;20057;-34
2023/06/02 09:29:13;;;;;;;16.73;9.50;;;;;;;21.23;45.62;102418.75;5010224;28;20041;-34
2023/06/02 09:31:54;;;;;;;18.80;9.63;;;;;;;21.25;45.12;102416.75;5004924;28;20159;-35
2023/06/02 09:34:23;;;;;;;17.67;9.90;;;;;;;21.27;45.11;102422.88;5008996;28;20053;-35
2023/06/02 09:36:52;;;;;;;20.40;11.13;;;;;;;21.28;45.30;102413.78;5006981;28;20083;-35
2023/06/02 09:39:53;;;;;;;17.40;9.90;;;;;;;21.29;45.33;102422.72;5008905;28;20045;-34
2023/06/02 09:42:23;;;;;;;17.42;10.32;;;;;;;21.32;45.11;102412.56;5007787;28;20424;-35
2023/06/02 09:45:09;;;;;;;16.35;9.30;;;;;;;21.34;45.17;102415.09;5005831;28;20058;-34
2023/06/02 09:47:41;;;;;;;18.10;9.88;;;;;;;21.35;45.39;102411.44;5007480;28;20406;-34
2023/06/02 09:50:09;;;;;;;18.83;9.88;;;;;;;21.37;45.40;102418.38;5003596;28;20053;-35
2023/06/02 09:52:36;;;;;;;16.35;8.80;;;;;;;21.38;44.99;102417.38;5002001;28;20460;-34
2023/06/02 09:55:06;;;;;;;16.23;9.32;;;;;;;21.40;45.18;102417.28;5005758;28;20103;-34
2023/06/02 09:57:33;;;;;;;16.38;9.23;;;;;;;21.43;45.37;102414.31;5004128;28;20081;-36
2023/06/02 10:00:00;;;;;;;15.65;9.73;;;;;;;21.45;45.00;102417.72;5005665;28;20096;-35
2023/06/02 10:02:26;;;;;;;17.38;9.90;;;;;;;21.47;44.78;102415.75;5006834;28;20050;-35
2023/06/02 10:04:53;;;;;;;19.38;9.40;;;;;;;21.48;45.17;102403.94;5007558;28;20152;-35
2023/06/02 10:07:38;;;;;;;19.63;9.02;;;;;;;21.49;44.72;102413.75;5007506;28;20045;-35
2023/06/02 10:10:28;;;;;;;15.00;8.73;;;;;;;21.53;44.84;102406.22;5006989;28;20092;-37
2023/06/02 10:13:13;;;;;;;13.50;8.00;;;;;;;21.54;44.78;102403.38;5003738;28;20057;-35
2023/06/02 10:15:40;;;;;;;16.55;8.60;;;;;;;21.57;44.55;102399.56;5006510;28;20049;-35
2023/06/02 10:18:46;;;;;;;14.95;8.23;;;;;;;21.57;44.54;102391.47;5005582;28;20049;-34
2023/06/02 10:21:35;;;;;;;12.48;7.18;;;;;;;21.60;44.54;102404.69;5028638;28;20285;-35
2023/06/02 10:24:18;;;;;;;20.48;8.77;;;;;;;21.60;44.38;102397.44;5006668;28;20062;-35
2023/06/02 10:26:48;;;;;;;17.45;8.25;;;;;;;21.63;44.48;102407.13;5007210;28;20050;-35
2023/06/02 10:29:16;;;;;;;14.50;8.00;;;;;;;21.61;44.30;102401.84;5005671;28;20046;-35
2023/06/02 10:31:44;;;;;;;15.00;8.55;;;;;;;21.63;44.34;102397.16;4989571;28;20501;-35
2023/06/02 10:34:37;;;;;;;15.27;8.45;;;;;;;21.64;44.87;102401.56;5006984;28;20461;-35
2023/06/02 10:37:04;;;;;;;16.88;8.15;;;;;;;21.65;44.64;102392.47;5005644;28;20081;-35
2023/06/02 10:39:46;;;;;;;13.90;7.57;;;;;;;21.66;44.43;102393.31;5007309;28;20058;-34
2023/06/02 10:42:15;;;;;;;14.32;7.50;;;;;;;21.68;44.21;102399.44;5006011;28;20057;-35
2023/06/02 10:44:42;;;;;;;13.48;7.15;;;;;;;21.69;44.28;102390.34;5006449;28;20625;-35
2023/06/02 10:47:32;;;;;;;11.75;6.97;;;;;;;21.68;44.27;102396.75;5006972;28;20109;-35
2023/06/02 10:50:00;;;;;;;14.38;7.88;;;;;;;21.71;44.48;102396.47;5004609;28;20145;-34
2023/06/02 10:52:34;;;;;;;13.00;7.10;;;;;;;21.71;44.28;102406.38;5006938;28;20050;-35
2023/06/02 10:55:07;;;;;;;11.18;6.85;;;;;;;21.71;44.48;102399.16;5004321;28;20723;-36
2023/06/02 10:57:52;;;;;;;13.05;7.30;;;;;;;21.71;44.15;102404.56;5006448;28;20054;-36
2023/06/02 11:00:39;;;;;;;12.93;6.40;;;;;;;21.72;44.32;102406.25;5003318;28;20095;-35
2023/06/02 11:03:14;;;;;;;10.70;6.22;;;;;;;21.73;44.29;102407.97;5002653;28;20046;-35
2023/06/02 11:05:42;;;;;;;13.02;6.30;;;;;;;21.74;44.31;102400.72;5003611;28;20046;-37
2023/06/02 11:08:17;;;;;;;13.18;7.45;;;;;;;21.74;44.53;102406.13;5034853;28;20073;-35
2023/06/02 11:11:10;;;;;;;13.23;7.20;;;;;;;21.74;44.06;102414.22;5007043;28;20049;-36
2023/06/02 11:13:58;;;;;;;11.85;6.32;;;;;;;21.74;44.17;102412.34;5002431;28;20097;-35
2023/06/02 11:16:27;;;;;;;10.27;6.53;;;;;;;21.76;43.94;102404.13;5004516;28;20053;-35
2023/06/02 11:18:54;;;;;;;11.32;6.65;;;;;;;21.76;44.19;102405.00;5003311;28;20445;-35
2023/06/02 11:21:25;;;;;;;12.48;6.70;;;;;;;21.77;44.17;102414.78;5003346;28;20058;-36
2023/06/02 11:23:52;;;;;;;12.25;6.18;;;;;;;21.77;44.46;102409.38;5003756;28;20053;-35